Patmos, Greece
Current Conditions -  °F | °C
As of 3:20 PM on Sunday 21 Dec 2014 (Local Time) from LGKO Reporting Station
Scattered Clouds Scattered Clouds  
Wind Chill: 63°   Ceiling: Unl
Heat Index: 63°   Visibility: 6mi
Dew Point: 50°   Wind: 6mph
Humidity: 63%   Direction: 280°W
Pressure: 30.03"   Gusts: NA
Location:  37.31°N, 26.54°E
Report Text: LGKO 211320Z 28005KT 9999 SCT025 17/10 Q1017
Loading
Personal Weather Stations






























Interactive Weather Map New forecast layout! Learn more

10-Day Weather Forecast

Advertisements
Track Severe Weather on mobile